createdAt,value
2019-03-27T00:02:05.219Z,92155.44
2019-03-27T00:04:53.280Z,92157.14
2019-03-27T00:07:41.716Z,92152.56
2019-03-27T00:10:30.764Z,92162.28
2019-03-27T00:13:18.976Z,92165.92
2019-03-27T00:16:07.447Z,92170.25
2019-03-27T00:18:55.838Z,92177.39
2019-03-27T00:21:44.336Z,92175.66
2019-03-27T00:24:33.168Z,92174.61
2019-03-27T00:27:21.381Z,92177.98
2019-03-27T00:30:11.077Z,92179.52
2019-03-27T00:32:59.568Z,92177.80
2019-03-27T00:35:48.075Z,92190.33
2019-03-27T00:38:36.984Z,92188.88
2019-03-27T00:41:25.635Z,92183.85
2019-03-27T00:44:13.825Z,92187.83
2019-03-27T00:47:01.957Z,92186.68
2019-03-27T00:49:49.861Z,92171.88
2019-03-27T00:52:38.525Z,92176.84
2019-03-27T00:55:26.991Z,92184.38
2019-03-27T00:58:18.143Z,92175.84
2019-03-27T01:01:14.318Z,92176.55
2019-03-27T01:04:03.022Z,92180.35
2019-03-27T01:06:51.512Z,92174.45
2019-03-27T01:09:39.910Z,92168.92
2019-03-27T01:12:28.629Z,92174.11
2019-03-27T01:15:17.456Z,92176.98
2019-03-27T01:18:06.197Z,92178.39
2019-03-27T01:20:54.230Z,92179.19
2019-03-27T01:23:42.724Z,92181.77
2019-03-27T01:26:31.070Z,92177.02
2019-03-27T01:29:19.139Z,92181.84
2019-03-27T01:32:07.617Z,92178.91
2019-03-27T01:34:55.759Z,92183.98
2019-03-27T01:37:44.682Z,92185.89
2019-03-27T01:40:33.650Z,92187.09
2019-03-27T01:43:22.787Z,92184.75
2019-03-27T01:46:11.575Z,92195.99
2019-03-27T01:48:59.991Z,92195.53
2019-03-27T01:51:48.711Z,92188.41
2019-03-27T01:54:37.086Z,92197.81
2019-03-27T01:57:25.142Z,92191.61
2019-03-27T02:00:14.039Z,92200.38
2019-03-27T02:03:02.561Z,92209.80
2019-03-27T02:05:50.769Z,92204.51
2019-03-27T02:08:39.349Z,92210.39
2019-03-27T02:11:28.045Z,92207.53
2019-03-27T02:14:17.727Z,92209.38
2019-03-27T02:17:06.828Z,92213.53
2019-03-27T02:19:55.939Z,92211.39
2019-03-27T02:22:44.188Z,92212.28
2019-03-27T02:25:33.230Z,92214.02
2019-03-27T02:28:21.896Z,92217.22
2019-03-27T02:31:10.178Z,92217.73
2019-03-27T02:33:58.774Z,92222.63
2019-03-27T02:36:46.904Z,92221.33
2019-03-27T02:39:35.711Z,92229.42
2019-03-27T02:42:24.596Z,92240.56
2019-03-27T02:45:13.348Z,92243.64
2019-03-27T02:48:01.952Z,92234.05
2019-03-27T02:50:50.430Z,92236.33
2019-03-27T02:53:39.171Z,92244.71
2019-03-27T02:56:28.239Z,92233.75
2019-03-27T02:59:17.424Z,92233.03
2019-03-27T03:02:06.378Z,92241.31
2019-03-27T03:04:54.854Z,92240.68
2019-03-27T03:07:43.342Z,92238.72
2019-03-27T03:10:32.079Z,92235.75
2019-03-27T03:13:21.094Z,92240.48
2019-03-27T03:16:09.152Z,92241.77
2019-03-27T03:18:57.222Z,92233.71
2019-03-27T03:21:46.187Z,92244.60
2019-03-27T03:24:34.971Z,92252.33
2019-03-27T03:27:22.947Z,92252.33
2019-03-27T03:30:11.826Z,92259.59
2019-03-27T03:33:00.612Z,92265.00
2019-03-27T03:35:50.141Z,92265.88
2019-03-27T03:38:38.493Z,92266.13
2019-03-27T03:41:27.488Z,92266.77
2019-03-27T03:44:16.046Z,92271.48
2019-03-27T03:47:04.507Z,92267.91
2019-03-27T03:49:52.714Z,92268.10
2019-03-27T03:52:45.575Z,92273.02
2019-03-27T03:55:32.876Z,92275.75
2019-03-27T03:58:22.737Z,92277.97
2019-03-27T04:01:11.009Z,92283.80
2019-03-27T04:03:59.010Z,92287.79
2019-03-27T04:06:48.631Z,92288.45
2019-03-27T04:09:37.341Z,92289.49
2019-03-27T04:12:25.640Z,92288.80
2019-03-27T04:15:14.325Z,92292.45
2019-03-27T04:18:02.973Z,92290.19
2019-03-27T04:20:51.408Z,92287.53
2019-03-27T04:23:40.296Z,92286.52
2019-03-27T04:26:33.426Z,92291.17
2019-03-27T04:29:19.857Z,92289.68
2019-03-27T04:32:09.421Z,92286.97
2019-03-27T04:34:58.112Z,92281.13
2019-03-27T04:37:46.211Z,92289.58
2019-03-27T04:40:34.710Z,92291.85
2019-03-27T04:43:24.868Z,92286.59
2019-03-27T04:46:13.319Z,92288.39
2019-03-27T04:49:02.039Z,92279.37
2019-03-27T04:51:50.994Z,92281.71
2019-03-27T04:54:39.833Z,92282.29
2019-03-27T04:57:28.963Z,92290.03
2019-03-27T05:00:17.910Z,92302.30
2019-03-27T05:03:06.668Z,92308.64
2019-03-27T05:05:55.014Z,92318.45
2019-03-27T05:08:43.411Z,92326.91
2019-03-27T05:11:31.964Z,92336.55
2019-03-27T05:14:21.514Z,92336.46
2019-03-27T05:17:09.531Z,92344.46
2019-03-27T05:19:59.168Z,92348.20
2019-03-27T05:22:47.472Z,92354.55
2019-03-27T05:25:36.549Z,92353.22
2019-03-27T05:28:25.109Z,92348.63
2019-03-27T05:31:13.667Z,92357.02
2019-03-27T05:34:01.690Z,92358.55
2019-03-27T05:36:50.211Z,92358.54
2019-03-27T05:39:39.286Z,92361.88
2019-03-27T05:42:29.004Z,92352.35
2019-03-27T05:45:17.295Z,92356.42
2019-03-27T05:48:06.331Z,92360.72
2019-03-27T05:50:54.711Z,92358.32
2019-03-27T05:53:43.698Z,92365.95
2019-03-27T05:56:32.468Z,92365.59
2019-03-27T05:59:21.185Z,92362.50
2019-03-27T06:02:09.778Z,92370.09
2019-03-27T06:04:58.799Z,92366.03
2019-03-27T06:07:47.693Z,92368.73
2019-03-27T06:10:36.019Z,92363.10
2019-03-27T06:13:24.707Z,92371.36
2019-03-27T06:16:13.270Z,92362.90
2019-03-27T06:19:01.739Z,92366.80
2019-03-27T06:21:50.678Z,92360.86
2019-03-27T06:24:39.078Z,92361.63
2019-03-27T06:27:27.707Z,92358.41
2019-03-27T06:30:15.891Z,92352.86
2019-03-27T06:33:04.304Z,92357.58
2019-03-27T06:35:52.218Z,92360.25
2019-03-27T06:38:42.027Z,92364.29
2019-03-27T06:41:30.082Z,92360.47
2019-03-27T06:44:19.027Z,92359.56
2019-03-27T06:47:08.556Z,92370.69
2019-03-27T06:49:58.859Z,92370.34
2019-03-27T06:52:47.023Z,92370.56
2019-03-27T06:55:35.565Z,92376.75
2019-03-27T06:58:24.267Z,92381.29
2019-03-27T07:01:12.722Z,92375.74
2019-03-27T07:04:10.481Z,92388.67
2019-03-27T07:06:51.775Z,92390.97
2019-03-27T07:09:42.386Z,92388.30
2019-03-27T07:12:29.700Z,92395.30
2019-03-27T07:15:18.841Z,92392.28
2019-03-27T07:18:07.627Z,92395.02
2019-03-27T07:20:57.295Z,92396.09
2019-03-27T07:23:45.744Z,92389.02
2019-03-27T07:26:34.190Z,92389.57
2019-03-27T07:29:22.319Z,92389.08
2019-03-27T07:32:10.677Z,92390.34
2019-03-27T07:34:59.286Z,92396.34
2019-03-27T07:37:47.771Z,92394.56
2019-03-27T07:40:37.169Z,92396.79
2019-03-27T07:43:25.886Z,92392.24
2019-03-27T07:46:14.416Z,92399.52
2019-03-27T07:49:03.905Z,92407.08
2019-03-27T07:51:52.703Z,92412.56
2019-03-27T07:54:41.607Z,92407.01
2019-03-27T07:57:30.082Z,92407.41
2019-03-27T08:00:19.722Z,92416.22
2019-03-27T08:03:08.358Z,92416.28
2019-03-27T08:05:57.227Z,92417.97
2019-03-27T08:08:45.348Z,92421.98
2019-03-27T08:11:33.531Z,92423.20
2019-03-27T08:14:22.176Z,92414.19
2019-03-27T08:17:10.531Z,92418.72
2019-03-27T08:19:59.020Z,92414.61
2019-03-27T08:22:47.586Z,92418.58
2019-03-27T08:25:36.327Z,92417.91
2019-03-27T08:28:25.100Z,92421.85
2019-03-27T08:31:13.883Z,92415.35
2019-03-27T08:34:02.339Z,92418.99
2019-03-27T08:36:51.232Z,92423.11
2019-03-27T08:39:39.523Z,92419.42
2019-03-27T08:42:28.465Z,92416.45
2019-03-27T08:45:17.074Z,92420.59
2019-03-27T08:48:05.739Z,92424.60
2019-03-27T08:51:01.639Z,92434.00
2019-03-27T08:53:50.211Z,92429.72
2019-03-27T08:56:38.887Z,92433.47
2019-03-27T08:59:27.293Z,92436.58
2019-03-27T09:02:16.035Z,92433.92
2019-03-27T09:05:05.723Z,92442.11
2019-03-27T09:07:54.445Z,92438.25
2019-03-27T09:10:43.488Z,92435.58
2019-03-27T09:13:32.330Z,92429.44
2019-03-27T09:16:21.161Z,92432.72
2019-03-27T09:19:09.710Z,92433.55
2019-03-27T09:21:58.415Z,92433.29
2019-03-27T09:24:46.507Z,92431.28
2019-03-27T09:27:34.978Z,92435.42
2019-03-27T09:30:23.936Z,92427.93
2019-03-27T09:33:12.817Z,92428.38
2019-03-27T09:36:00.925Z,92422.42
2019-03-27T09:38:49.823Z,92429.45
2019-03-27T09:41:38.775Z,92423.16
2019-03-27T09:44:27.735Z,92428.49
2019-03-27T09:47:16.281Z,92422.03
2019-03-27T09:50:06.631Z,92422.66
2019-03-27T09:52:54.790Z,92423.27
2019-03-27T09:55:43.067Z,92426.77
2019-03-27T09:58:31.569Z,92432.39
2019-03-27T10:01:21.636Z,92426.19
2019-03-27T10:04:10.431Z,92427.55
2019-03-27T10:06:59.022Z,92433.09
2019-03-27T10:09:50.247Z,92423.57
2019-03-27T10:12:37.286Z,92417.47
2019-03-27T10:15:26.148Z,92420.83
2019-03-27T10:18:14.503Z,92422.25
2019-03-27T10:21:04.266Z,92426.50
2019-03-27T10:23:52.774Z,92424.44
2019-03-27T10:26:42.714Z,92418.00
2019-03-27T10:29:30.162Z,92422.67
2019-03-27T10:32:18.961Z,92417.78
2019-03-27T10:35:07.806Z,92423.64
2019-03-27T10:37:56.990Z,92418.36
2019-03-27T10:40:45.370Z,92423.23
2019-03-27T10:43:33.391Z,92417.58
2019-03-27T10:46:22.516Z,92417.81
2019-03-27T10:49:10.910Z,92419.66
2019-03-27T10:51:59.121Z,92420.23
2019-03-27T10:54:51.029Z,92411.45
2019-03-27T10:57:39.580Z,92406.62
2019-03-27T11:00:28.291Z,92410.43
2019-03-27T11:03:17.202Z,92405.57
2019-03-27T11:06:05.239Z,92393.54
2019-03-27T11:08:54.388Z,92396.40
2019-03-27T11:11:42.408Z,92398.17
2019-03-27T11:14:37.716Z,92391.22
2019-03-27T11:17:21.261Z,92392.27
2019-03-27T11:20:11.182Z,92394.55
2019-03-27T11:22:59.894Z,92387.76
2019-03-27T11:25:48.279Z,92385.46
2019-03-27T11:28:36.623Z,92384.20
2019-03-27T11:31:25.253Z,92375.95
2019-03-27T11:34:14.038Z,92363.21
2019-03-27T11:37:02.496Z,92367.68
2019-03-27T11:39:53.785Z,92372.34
2019-03-27T11:42:42.304Z,92367.91
2019-03-27T11:45:31.192Z,92352.88
2019-03-27T11:48:19.789Z,92355.24
2019-03-27T11:51:08.187Z,92351.73
2019-03-27T11:53:56.370Z,92352.69
2019-03-27T11:56:44.681Z,92353.52
2019-03-27T11:59:33.300Z,92358.85
2019-03-27T12:02:22.114Z,92354.41
2019-03-27T12:05:10.686Z,92361.81
2019-03-27T12:07:59.351Z,92358.67
2019-03-27T12:10:48.106Z,92355.95
2019-03-27T12:13:36.099Z,92350.86
2019-03-27T12:16:24.567Z,92351.77
2019-03-27T12:19:12.992Z,92347.03
2019-03-27T12:22:00.991Z,92348.77
2019-03-27T12:24:50.124Z,92344.30
2019-03-27T12:27:38.699Z,92338.38
2019-03-27T12:30:27.636Z,92330.94
2019-03-27T12:33:16.309Z,92330.02
2019-03-27T12:36:06.523Z,92327.20
2019-03-27T12:38:55.282Z,92326.83
2019-03-27T12:41:43.813Z,92332.48
2019-03-27T12:44:31.947Z,92331.37
2019-03-27T12:47:20.276Z,92337.25
2019-03-27T12:50:09.082Z,92339.38
2019-03-27T12:52:58.036Z,92343.48
2019-03-27T12:55:46.723Z,92337.73
2019-03-27T12:58:36.156Z,92351.50
2019-03-27T13:01:24.654Z,92353.78
2019-03-27T13:04:13.084Z,92351.30
2019-03-27T13:07:01.307Z,92344.84
2019-03-27T13:09:49.698Z,92346.19
2019-03-27T13:12:19.894Z,92347.17
2019-03-27T13:14:50.625Z,92343.98
2019-03-27T13:17:20.808Z,92349.45
2019-03-27T13:19:50.948Z,92355.28
2019-03-27T13:22:21.045Z,92354.16
2019-03-27T13:24:51.150Z,92355.98
2019-03-27T13:27:21.330Z,92356.70
2019-03-27T13:29:51.826Z,92362.16
2019-03-27T13:32:21.966Z,92362.30
2019-03-27T13:34:52.042Z,92362.94
2019-03-27T13:37:22.766Z,92371.52
2019-03-27T13:39:52.915Z,92371.55
2019-03-27T13:42:23.536Z,92370.67
2019-03-27T13:44:53.968Z,92371.36
2019-03-27T13:47:24.164Z,92369.02
2019-03-27T13:49:57.906Z,92375.11
2019-03-27T13:52:27.998Z,92376.38
2019-03-27T13:54:58.143Z,92375.23
2019-03-27T13:57:28.607Z,92374.47
2019-03-27T13:59:58.726Z,92378.28
2019-03-27T14:02:28.910Z,92379.63
2019-03-27T14:04:59.383Z,92378.72
2019-03-27T14:07:29.487Z,92380.92
2019-03-27T14:09:59.634Z,92381.48
2019-03-27T14:12:29.732Z,92378.00
2019-03-27T14:14:59.823Z,92374.52
2019-03-27T14:17:30.908Z,92375.30
2019-03-27T14:20:01.016Z,92372.32
2019-03-27T14:22:31.111Z,92376.38
2019-03-27T14:25:01.248Z,92375.25
2019-03-27T14:27:31.330Z,92381.75
2019-03-27T14:30:01.735Z,92386.28
2019-03-27T14:32:31.941Z,92381.68
2019-03-27T14:35:02.861Z,92387.41
2019-03-27T14:37:33.310Z,92390.74
2019-03-27T14:40:03.455Z,92390.67
2019-03-27T14:42:33.969Z,92391.16
2019-03-27T14:45:04.617Z,92393.97
2019-03-27T14:47:34.713Z,92394.30
2019-03-27T14:50:05.264Z,92391.73
2019-03-27T14:52:35.465Z,92394.81
2019-03-27T14:55:06.020Z,92394.13
2019-03-27T14:57:36.493Z,92401.72
2019-03-27T15:00:08.023Z,92397.42
2019-03-27T15:02:38.135Z,92396.69
2019-03-27T15:05:09.849Z,92402.01
2019-03-27T15:07:40.039Z,92397.61
2019-03-27T15:10:11.331Z,92404.17
2019-03-27T15:12:41.479Z,92411.84
2019-03-27T15:15:12.484Z,92416.83
2019-03-27T15:17:43.148Z,92415.48
2019-03-27T15:20:14.805Z,92418.89
2019-03-27T15:22:44.924Z,92417.07
2019-03-27T15:25:15.447Z,92417.82
2019-03-27T15:27:45.847Z,92418.98
2019-03-27T15:30:16.601Z,92414.17
2019-03-27T15:32:46.680Z,92417.73
2019-03-27T15:35:17.295Z,92423.68
2019-03-27T15:37:47.587Z,92420.03
2019-03-27T15:40:19.231Z,92426.05
2019-03-27T15:42:49.791Z,92423.20
2019-03-27T15:45:20.029Z,92421.39
2019-03-27T15:47:50.648Z,92423.24
2019-03-27T15:50:21.183Z,92423.56
2019-03-27T15:52:51.298Z,92424.51
2019-03-27T15:55:22.419Z,92419.84
2019-03-27T15:57:52.610Z,92426.25
2019-03-27T16:00:23.830Z,92428.58
2019-03-27T16:02:54.882Z,92427.16
2019-03-27T16:05:26.087Z,92427.31
2019-03-27T16:07:56.204Z,92428.98
2019-03-27T16:10:26.878Z,92433.95
2019-03-27T16:12:56.971Z,92439.00
2019-03-27T16:15:27.506Z,92442.40
2019-03-27T16:17:57.677Z,92440.48
2019-03-27T16:20:27.768Z,92454.18
2019-03-27T16:22:58.554Z,92456.02
2019-03-27T16:25:30.483Z,92460.48
2019-03-27T16:28:00.573Z,92459.66
2019-03-27T16:30:30.682Z,92463.34
2019-03-27T16:33:00.892Z,92466.16
2019-03-27T16:35:30.990Z,92465.77
2019-03-27T16:38:01.080Z,92471.58
2019-03-27T16:40:44.426Z,92473.63
2019-03-27T16:43:15.911Z,92473.17
2019-03-27T16:45:46.118Z,92475.94
2019-03-27T16:48:16.794Z,92477.45
2019-03-27T16:50:46.889Z,92471.20
2019-03-27T16:53:17.030Z,92484.25
2019-03-27T16:55:47.167Z,92487.77
2019-03-27T16:58:17.307Z,92494.72
2019-03-27T17:00:47.499Z,92490.27
2019-03-27T17:03:18.403Z,92497.98
2019-03-27T17:05:54.306Z,92494.59
2019-03-27T17:08:20.219Z,92490.68
2019-03-27T17:10:50.348Z,92488.45
2019-03-27T17:13:21.254Z,92479.89
2019-03-27T17:15:51.383Z,92476.27
2019-03-27T17:18:21.968Z,92478.18
2019-03-27T17:20:52.061Z,92486.23
2019-03-27T17:23:22.159Z,92488.16
2019-03-27T17:25:52.402Z,92482.95
2019-03-27T17:28:22.864Z,92474.53
2019-03-27T17:30:52.955Z,92474.46
2019-03-27T17:33:23.159Z,92479.11
2019-03-27T17:35:53.235Z,92490.74
2019-03-27T17:38:23.897Z,92489.49
2019-03-27T17:40:55.379Z,92490.69
2019-03-27T17:43:25.476Z,92491.50
2019-03-27T17:45:55.560Z,92494.17
2019-03-27T17:48:25.739Z,92505.96
2019-03-27T17:50:55.837Z,92510.50
2019-03-27T17:53:31.672Z,92510.59
2019-03-27T17:55:58.027Z,92505.76
2019-03-27T17:58:28.117Z,92514.16
2019-03-27T18:01:01.258Z,92511.34
2019-03-27T18:03:31.571Z,92514.58
2019-03-27T18:06:04.337Z,92513.66
2019-03-27T18:08:34.771Z,92521.36
2019-03-27T18:11:08.033Z,92522.23
2019-03-27T18:13:36.714Z,92533.34
2019-03-27T18:16:06.790Z,92525.34
2019-03-27T18:18:37.017Z,92528.98
2019-03-27T18:21:07.579Z,92526.52
2019-03-27T18:23:46.032Z,92539.94
2019-03-27T18:26:09.419Z,92534.03
2019-03-27T18:28:40.590Z,92525.86
2019-03-27T18:31:11.087Z,92522.56
2019-03-27T18:33:41.637Z,92533.17
2019-03-27T18:36:14.779Z,92537.68
2019-03-27T18:38:46.049Z,92534.42
2019-03-27T18:41:16.473Z,92543.34
2019-03-27T18:43:46.563Z,92547.25
2019-03-27T18:46:16.670Z,92547.80
2019-03-27T18:48:46.877Z,92543.48
2019-03-27T18:51:16.975Z,92541.20
2019-03-27T18:53:58.909Z,92541.58
2019-03-27T18:56:18.819Z,92544.84
2019-03-27T18:58:49.337Z,92542.80
2019-03-27T19:01:19.801Z,92552.32
2019-03-27T19:03:50.863Z,92551.22
2019-03-27T19:06:24.885Z,92552.38
2019-03-27T19:08:55.006Z,92560.89
2019-03-27T19:11:25.199Z,92554.54
2019-03-27T19:13:55.290Z,92553.92
2019-03-27T19:16:25.807Z,92562.91
2019-03-27T19:18:56.350Z,92565.80
2019-03-27T19:21:26.546Z,92561.39
2019-03-27T19:23:57.156Z,92568.36
2019-03-27T19:26:28.302Z,92566.19
2019-03-27T19:28:58.924Z,92569.87
2019-03-27T19:31:29.464Z,92579.28
2019-03-27T19:34:01.836Z,92577.78
2019-03-27T19:36:31.956Z,92578.55
2019-03-27T19:39:02.170Z,92577.09
2019-03-27T19:41:32.343Z,92582.35
2019-03-27T19:44:02.925Z,92583.09
2019-03-27T19:46:33.136Z,92595.94
2019-03-27T19:49:03.235Z,92592.30
2019-03-27T19:51:33.317Z,92602.32
2019-03-27T19:54:03.772Z,92602.63
2019-03-27T19:56:33.858Z,92612.27
2019-03-27T19:59:03.946Z,92614.91
2019-03-27T20:01:34.630Z,92616.05
2019-03-27T20:04:04.954Z,92607.31
2019-03-27T20:06:35.062Z,92606.84
2019-03-27T20:09:06.754Z,92603.34
2019-03-27T20:11:37.361Z,92611.31
2019-03-27T20:14:07.785Z,92607.42
2019-03-27T20:16:38.425Z,92606.27
2019-03-27T20:19:08.542Z,92614.38
2019-03-27T20:21:43.418Z,92610.16
2019-03-27T20:24:13.539Z,92615.66
2019-03-27T20:26:43.712Z,92613.08
2019-03-27T20:29:14.013Z,92614.08
2019-03-27T20:31:44.114Z,92624.22
2019-03-27T20:34:15.741Z,92621.03
2019-03-27T20:36:46.362Z,92624.14
2019-03-27T20:39:16.504Z,92617.05
2019-03-27T20:41:47.209Z,92624.88
2019-03-27T20:44:18.134Z,92626.09
2019-03-27T20:46:48.383Z,92627.21
2019-03-27T20:49:18.589Z,92618.45
2019-03-27T20:51:48.981Z,92634.05
2019-03-27T20:54:19.235Z,92630.98
2019-03-27T20:56:49.687Z,92631.00
2019-03-27T20:59:38.174Z,92637.97
2019-03-27T21:02:27.102Z,92633.06
2019-03-27T21:05:15.864Z,92640.38
2019-03-27T21:08:04.385Z,92639.14
2019-03-27T21:10:53.818Z,92642.17
2019-03-27T21:13:42.428Z,92639.42
2019-03-27T21:16:31.977Z,92636.23
2019-03-27T21:19:20.114Z,92641.48
2019-03-27T21:22:08.406Z,92640.66
2019-03-27T21:25:08.166Z,92639.43
2019-03-27T21:27:46.936Z,92635.93
2019-03-27T21:30:35.510Z,92635.44
2019-03-27T21:33:23.991Z,92639.23
2019-03-27T21:36:11.872Z,92636.55
2019-03-27T21:39:00.757Z,92651.53
2019-03-27T21:41:51.490Z,92652.05
2019-03-27T21:44:40.237Z,92653.48
2019-03-27T21:47:28.706Z,92651.80
2019-03-27T21:50:16.839Z,92652.80
2019-03-27T21:53:05.769Z,92646.66
2019-03-27T21:55:53.801Z,92653.17
2019-03-27T21:58:42.537Z,92647.48
2019-03-27T22:01:31.653Z,92650.15
2019-03-27T22:04:20.443Z,92661.84
2019-03-27T22:07:09.106Z,92661.02
2019-03-27T22:10:08.954Z,92659.26
2019-03-27T22:12:57.596Z,92672.21
2019-03-27T22:15:49.490Z,92669.73
2019-03-27T22:18:42.131Z,92673.84
2019-03-27T22:21:34.027Z,92671.78
2019-03-27T22:24:26.222Z,92672.00
2019-03-27T22:27:14.618Z,92671.19
2019-03-27T22:30:09.683Z,92676.66
2019-03-27T22:33:05.495Z,92678.92
2019-03-27T22:35:54.936Z,92672.15
2019-03-27T22:38:44.038Z,92676.56
2019-03-27T22:41:32.867Z,92676.45
2019-03-27T22:44:24.082Z,92681.47
2019-03-27T22:47:15.594Z,92670.61
2019-03-27T22:50:09.370Z,92672.45
2019-03-27T22:53:01.383Z,92674.09
2019-03-27T22:55:58.415Z,92678.10
2019-03-27T22:58:46.214Z,92681.80
2019-03-27T23:01:40.691Z,92683.84
2019-03-27T23:04:29.242Z,92685.38
2019-03-27T23:07:17.095Z,92677.57
2019-03-27T23:10:05.471Z,92682.70
2019-03-27T23:12:54.353Z,92682.51
2019-03-27T23:15:43.112Z,92683.24
2019-03-27T23:18:31.879Z,92686.34
2019-03-27T23:21:20.315Z,92688.31
2019-03-27T23:24:09.510Z,92688.23
2019-03-27T23:26:58.031Z,92687.84
2019-03-27T23:29:46.479Z,92691.37
2019-03-27T23:32:34.991Z,92697.05
2019-03-27T23:35:23.612Z,92699.49
2019-03-27T23:38:12.929Z,92702.66
2019-03-27T23:41:01.614Z,92697.45
2019-03-27T23:43:50.158Z,92701.22
2019-03-27T23:46:38.465Z,92697.45
2019-03-27T23:49:27.474Z,92704.83
2019-03-27T23:52:16.903Z,92703.89
2019-03-27T23:55:05.502Z,92704.32
2019-03-27T23:57:54.040Z,92703.06
